KLAF/LAF METAR and TAF weather

Enter ICAO airport designator
Station Type Date Time Source
KLAF METAR 2022/10/01 06:54 UTC NOAA

KLAF 010654Z AUTO 03005KT 10SM CLR 09/06 A3013 RMK AO2 SLP202 T00890056


Station Type Date Time Source
KLAF Decoded METAR 2022/10/01 06:54 UTC NOAA

LAFAYETTE PURDUE UNIV AIRPORT , IN, United States (KLAF) 40-25N 86-57W 182M
Oct 01, 2022 - 02:54 AM EDT / 2022.10.01 0654 UTC
Wind: from the NNE (030 degrees) at 6 MPH (5 KT):0
Visibility: 10 mile(s):0
Sky conditions: clear
Temperature: 48.0 F (8.9 C)
Dew Point: 42.1 F (5.6 C)
Relative Humidity: 79%
Pressure (altimeter): 30.13 in. Hg (1020 hPa)
ob: KLAF 010654Z AUTO 03005KT 10SM CLR 09/06 A3013 RMK AO2 SLP202 T00890056
cycle: 7

Station Type Date Time Source
KLAF TAF 2022/10/01 06:22 UTC NOAA

TAF KLAF 010520Z 0106/0206 04005KT P6SM SKC
FM011500 04011G19KT P6SM SKC
FM020000 02008KT P6SM SKC
AMD LTD TO CLD VIS AND WIND TIL 011300

Example: see airport list